sensor_id;sensor_type;location;lat;lon;timestamp;pressure;altitude;pressure_sealevel;temperature
76009;BMP280;64700;52.130;21.270;2024-03-02T00:01:47;100335.53;;;20.71
76009;BMP280;64700;52.130;21.270;2024-03-02T00:04:12;100339.00;;;20.71
76009;BMP280;64700;52.130;21.270;2024-03-02T00:06:37;100328.13;;;20.71
76009;BMP280;64700;52.130;21.270;2024-03-02T00:09:02;100329.81;;;20.69
76009;BMP280;64700;52.130;21.270;2024-03-02T00:11:28;100328.59;;;20.70
76009;BMP280;64700;52.130;21.270;2024-03-02T00:13:53;100321.94;;;20.71
76009;BMP280;64700;52.130;21.270;2024-03-02T00:16:19;100324.38;;;20.69
76009;BMP280;64700;52.130;21.270;2024-03-02T00:18:45;100333.75;;;20.68
76009;BMP280;64700;52.130;21.270;2024-03-02T00:21:10;100322.88;;;20.68
76009;BMP280;64700;52.130;21.270;2024-03-02T00:23:36;100322.13;;;20.67
76009;BMP280;64700;52.130;21.270;2024-03-02T00:26:02;100317.91;;;20.66
76009;BMP280;64700;52.130;21.270;2024-03-02T00:28:28;100319.41;;;20.67
76009;BMP280;64700;52.130;21.270;2024-03-02T00:30:58;100323.34;;;20.66
76009;BMP280;64700;52.130;21.270;2024-03-02T00:33:23;100323.34;;;20.66
76009;BMP280;64700;52.130;21.270;2024-03-02T00:35:49;100319.59;;;20.64
76009;BMP280;64700;52.130;21.270;2024-03-02T00:38:14;100318.06;;;20.63
76009;BMP280;64700;52.130;21.270;2024-03-02T00:40:40;100316.13;;;20.63
76009;BMP280;64700;52.130;21.270;2024-03-02T00:43:06;100305.28;;;20.63
76009;BMP280;64700;52.130;21.270;2024-03-02T00:45:36;100311.13;;;20.62
76009;BMP280;64700;52.130;21.270;2024-03-02T00:48:04;100312.38;;;20.61
76009;BMP280;64700;52.130;21.270;2024-03-02T00:50:29;100321.56;;;20.63
76009;BMP280;64700;52.130;21.270;2024-03-02T00:52:55;100322.31;;;20.64
76009;BMP280;64700;52.130;21.270;2024-03-02T00:55:20;100322.75;;;20.62
76009;BMP280;64700;52.130;21.270;2024-03-02T00:57:45;100310.88;;;20.60
76009;BMP280;64700;52.130;21.270;2024-03-02T01:00:10;100317.31;;;20.62
76009;BMP280;64700;52.130;21.270;2024-03-02T01:02:39;100315.84;;;20.61
76009;BMP280;64700;52.130;21.270;2024-03-02T01:05:05;100310.41;;;20.61
76009;BMP280;64700;52.130;21.270;2024-03-02T01:07:30;100306.94;;;20.61
76009;BMP280;64700;52.130;21.270;2024-03-02T01:09:55;100302.25;;;20.61
76009;BMP280;64700;52.130;21.270;2024-03-02T01:12:21;100304.69;;;20.59
76009;BMP280;64700;52.130;21.270;2024-03-02T01:14:46;100294.56;;;20.60
76009;BMP280;64700;52.130;21.270;2024-03-02T01:17:11;100292.31;;;20.58
76009;BMP280;64700;52.130;21.270;2024-03-02T01:19:36;100296.53;;;20.59
76009;BMP280;64700;52.130;21.270;2024-03-02T01:22:02;100293.56;;;20.57
76009;BMP280;64700;52.130;21.270;2024-03-02T01:24:28;100301.69;;;20.57
76009;BMP280;64700;52.130;21.270;2024-03-02T01:26:53;100297.47;;;20.56
76009;BMP280;64700;52.130;21.270;2024-03-02T01:29:18;100300.94;;;20.57
76009;BMP280;64700;52.130;21.270;2024-03-02T01:31:44;100297.00;;;20.58
76009;BMP280;64700;52.130;21.270;2024-03-02T01:34:10;100297.75;;;20.58
76009;BMP280;64700;52.130;21.270;2024-03-02T01:36:35;100294.75;;;20.56
76009;BMP280;64700;52.130;21.270;2024-03-02T01:39:00;100290.53;;;20.55
76009;BMP280;64700;52.130;21.270;2024-03-02T01:41:26;100295.22;;;20.55
76009;BMP280;64700;52.130;21.270;2024-03-02T01:43:51;100287.06;;;20.55
76009;BMP280;64700;52.130;21.270;2024-03-02T01:46:17;100304.88;;;20.56
76009;BMP280;64700;52.130;21.270;2024-03-02T01:48:42;100286.31;;;20.54
76009;BMP280;64700;52.130;21.270;2024-03-02T01:51:07;100287.53;;;20.53
76009;BMP280;64700;52.130;21.270;2024-03-02T01:53:32;100285.84;;;20.56
76009;BMP280;64700;52.130;21.270;2024-03-02T01:55:58;100294.75;;;20.56
76009;BMP280;64700;52.130;21.270;2024-03-02T01:58:23;100287.81;;;20.55
76009;BMP280;64700;52.130;21.270;2024-03-02T02:00:48;100278.66;;;20.53
76009;BMP280;64700;52.130;21.270;2024-03-02T02:03:14;100278.47;;;20.56
76009;BMP280;64700;52.130;21.270;2024-03-02T02:05:39;100277.59;;;20.50
76009;BMP280;64700;52.130;21.270;2024-03-02T02:08:06;100277.91;;;20.52
76009;BMP280;64700;52.130;21.270;2024-03-02T02:10:31;100285.75;;;20.50
76009;BMP280;64700;52.130;21.270;2024-03-02T02:12:57;100288.00;;;20.52
76009;BMP280;64700;52.130;21.270;2024-03-02T02:15:25;100281.06;;;20.51
76009;BMP280;64700;52.130;21.270;2024-03-02T02:17:51;100276.84;;;20.49
76009;BMP280;64700;52.130;21.270;2024-03-02T02:20:16;100276.41;;;20.51
76009;BMP280;64700;52.130;21.270;2024-03-02T02:22:52;100269.16;;;20.48
76009;BMP280;64700;52.130;21.270;2024-03-02T02:25:17;100264.50;;;20.48
76009;BMP280;64700;52.130;21.270;2024-03-02T02:27:42;100263.72;;;20.48
76009;BMP280;64700;52.130;21.270;2024-03-02T02:30:08;100270.97;;;20.51
76009;BMP280;64700;52.130;21.270;2024-03-02T02:32:33;100264.50;;;20.48
76009;BMP280;64700;52.130;21.270;2024-03-02T02:34:58;100258.75;;;20.46
76009;BMP280;64700;52.130;21.270;2024-03-02T02:37:24;100258.00;;;20.46
76009;BMP280;64700;52.130;21.270;2024-03-02T02:39:49;100259.50;;;20.47
76009;BMP280;64700;52.130;21.270;2024-03-02T02:42:14;100258.47;;;20.44
76009;BMP280;64700;52.130;21.270;2024-03-02T02:44:39;100254.53;;;20.45
76009;BMP280;64700;52.130;21.270;2024-03-02T02:47:04;100259.22;;;20.45
76009;BMP280;64700;52.130;21.270;2024-03-02T02:49:30;100253.03;;;20.44
76009;BMP280;64700;52.130;21.270;2024-03-02T02:51:56;100260.47;;;20.44
76009;BMP280;64700;52.130;21.270;2024-03-02T02:54:21;100259.72;;;20.43
76009;BMP280;64700;52.130;21.270;2024-03-02T02:56:46;100258.97;;;20.43
76009;BMP280;64700;52.130;21.270;2024-03-02T02:59:11;100258.19;;;20.42
76009;BMP280;64700;52.130;21.270;2024-03-02T03:01:37;100258.97;;;20.43
76009;BMP280;64700;52.130;21.270;2024-03-02T03:04:02;100248.84;;;20.43
76009;BMP280;64700;52.130;21.270;2024-03-02T03:06:27;100247.78;;;20.41
76009;BMP280;64700;52.130;21.270;2024-03-02T03:08:52;100239.19;;;20.42
76009;BMP280;64700;52.130;21.270;2024-03-02T03:11:17;100247.78;;;20.41
76009;BMP280;64700;52.130;21.270;2024-03-02T03:13:43;100243.88;;;20.42
76009;BMP280;64700;52.130;21.270;2024-03-02T03:16:08;100244.63;;;20.42
76009;BMP280;64700;52.130;21.270;2024-03-02T03:18:33;100238.63;;;20.38
76009;BMP280;64700;52.130;21.270;2024-03-02T03:20:58;100239.66;;;20.41
76009;BMP280;64700;52.130;21.270;2024-03-02T03:23:23;100244.06;;;20.38
76009;BMP280;64700;52.130;21.270;2024-03-02T03:25:50;100244.31;;;20.40
76009;BMP280;64700;52.130;21.270;2024-03-02T03:28:15;100241.34;;;20.38
76009;BMP280;64700;52.130;21.270;2024-03-02T03:30:41;100242.38;;;20.41
76009;BMP280;64700;52.130;21.270;2024-03-02T03:33:06;100242.84;;;20.39
76009;BMP280;64700;52.130;21.270;2024-03-02T03:35:31;100251.75;;;20.40
76009;BMP280;64700;52.130;21.270;2024-03-02T03:37:57;100242.09;;;20.39
76009;BMP280;64700;52.130;21.270;2024-03-02T03:40:22;100241.06;;;20.36
76009;BMP280;64700;52.130;21.270;2024-03-02T03:42:47;100243.03;;;20.36
76009;BMP280;64700;52.130;21.270;2024-03-02T03:45:13;100241.81;;;20.37
76009;BMP280;64700;52.130;21.270;2024-03-02T03:47:39;100244.53;;;20.37
76009;BMP280;64700;52.130;21.270;2024-03-02T03:50:04;100244.53;;;20.37
76009;BMP280;64700;52.130;21.270;2024-03-02T03:52:32;100231.88;;;20.34
76009;BMP280;64700;52.130;21.270;2024-03-02T03:54:57;100235.63;;;20.36
76009;BMP280;64700;52.130;21.270;2024-03-02T03:57:22;100241.53;;;20.35
76009;BMP280;64700;52.130;21.270;2024-03-02T03:59:47;100253.59;;;20.34
76009;BMP280;64700;52.130;21.270;2024-03-02T04:02:12;100248.19;;;20.34
76009;BMP280;64700;52.130;21.270;2024-03-02T04:04:38;100249.34;;;20.33
76009;BMP280;64700;52.130;21.270;2024-03-02T04:07:03;100232.31;;;20.32
76009;BMP280;64700;52.130;21.270;2024-03-02T04:09:29;100240.03;;;20.34
76009;BMP280;64700;52.130;21.270;2024-03-02T04:11:54;100246.38;;;20.31
76009;BMP280;64700;52.130;21.270;2024-03-02T04:14:19;100245.63;;;20.30
76009;BMP280;64700;52.130;21.270;2024-03-02T04:16:44;100244.41;;;20.31
76009;BMP280;64700;52.130;21.270;2024-03-02T04:19:10;100240.19;;;20.30
76009;BMP280;64700;52.130;21.270;2024-03-02T04:21:35;100244.13;;;20.29
76009;BMP280;64700;52.130;21.270;2024-03-02T04:24:00;100239.44;;;20.30
76009;BMP280;64700;52.130;21.270;2024-03-02T04:26:25;100240.94;;;20.31
76009;BMP280;64700;52.130;21.270;2024-03-02T04:28:51;100244.88;;;20.30
76009;BMP280;64700;52.130;21.270;2024-03-02T04:31:16;100246.09;;;20.29
76009;BMP280;64700;52.130;21.270;2024-03-02T04:33:42;100251.25;;;20.27
76009;BMP280;64700;52.130;21.270;2024-03-02T04:36:07;100233.00;;;20.27
76009;BMP280;64700;52.130;21.270;2024-03-02T04:38:34;100229.53;;;20.27
76009;BMP280;64700;52.130;21.270;2024-03-02T04:40:59;100240.38;;;20.27
76009;BMP280;64700;52.130;21.270;2024-03-02T04:43:24;100240.19;;;20.30
76009;BMP280;64700;52.130;21.270;2024-03-02T04:45:51;100229.78;;;20.29
76009;BMP280;64700;52.130;21.270;2024-03-02T04:48:16;100227.06;;;20.29
76009;BMP280;64700;52.130;21.270;2024-03-02T04:50:41;100229.34;;;20.30
76009;BMP280;64700;52.130;21.270;2024-03-02T04:53:06;100226.63;;;20.30
76009;BMP280;64700;52.130;21.270;2024-03-02T04:55:32;100222.69;;;20.31
76009;BMP280;64700;52.130;21.270;2024-03-02T04:58:00;100228.38;;;20.33
76009;BMP280;64700;52.130;21.270;2024-03-02T05:00:25;100221.47;;;20.32
76009;BMP280;64700;52.130;21.270;2024-03-02T05:02:50;100222.97;;;20.33
76009;BMP280;64700;52.130;21.270;2024-03-02T05:05:16;100239.25;;;20.33
76009;BMP280;64700;52.130;21.270;2024-03-02T05:07:41;100235.78;;;20.33
76009;BMP280;64700;52.130;21.270;2024-03-02T05:10:10;100240.34;;;20.36
76009;BMP280;64700;52.130;21.270;2024-03-02T05:12:36;100236.38;;;20.37
76009;BMP280;64700;52.130;21.270;2024-03-02T05:15:07;100253.41;;;20.37
76009;BMP280;64700;52.130;21.270;2024-03-02T05:17:33;100248.75;;;20.38
76009;BMP280;64700;52.130;21.270;2024-03-02T05:19:58;100246.03;;;20.38
76009;BMP280;64700;52.130;21.270;2024-03-02T05:22:23;100253.72;;;20.39
76009;BMP280;64700;52.130;21.270;2024-03-02T05:24:48;100248.28;;;20.39
76009;BMP280;64700;52.130;21.270;2024-03-02T05:27:14;100253.22;;;20.41
76009;BMP280;64700;52.130;21.270;2024-03-02T05:29:39;100256.69;;;20.41
76009;BMP280;64700;52.130;21.270;2024-03-02T05:32:04;100258.66;;;20.41
76009;BMP280;64700;52.130;21.270;2024-03-02T05:34:30;100262.63;;;20.40
76009;BMP280;64700;52.130;21.270;2024-03-02T05:36:55;100256.69;;;20.41
76009;BMP280;64700;52.130;21.270;2024-03-02T05:39:22;100258.66;;;20.41
76009;BMP280;64700;52.130;21.270;2024-03-02T05:41:47;100266.34;;;20.42
76009;BMP280;64700;52.130;21.270;2024-03-02T05:44:13;100267.84;;;20.43
76009;BMP280;64700;52.130;21.270;2024-03-02T05:46:40;100281.44;;;20.43
76009;BMP280;64700;52.130;21.270;2024-03-02T05:49:05;100291.53;;;20.43
76009;BMP280;64700;52.130;21.270;2024-03-02T05:51:33;100289.59;;;20.43
76009;BMP280;64700;52.130;21.270;2024-03-02T05:53:58;100295.75;;;20.44
76009;BMP280;64700;52.130;21.270;2024-03-02T05:56:23;100297.72;;;20.43
76009;BMP280;64700;52.130;21.270;2024-03-02T05:58:48;100294.25;;;20.43
76009;BMP280;64700;52.130;21.270;2024-03-02T06:01:37;100297.25;;;20.45
76009;BMP280;64700;52.130;21.270;2024-03-02T06:04:02;100299.19;;;20.44
76009;BMP280;64700;52.130;21.270;2024-03-02T06:06:27;100290.34;;;20.44
76009;BMP280;64700;52.130;21.270;2024-03-02T06:08:53;100299.97;;;20.45
76009;BMP280;64700;52.130;21.270;2024-03-02T06:11:21;100301.91;;;20.44
76009;BMP280;64700;52.130;21.270;2024-03-02T06:13:46;100310.81;;;20.45
76009;BMP280;64700;52.130;21.270;2024-03-02T06:16:12;100303.16;;;20.43
76009;BMP280;64700;52.130;21.270;2024-03-02T06:18:37;100305.88;;;20.43
76009;BMP280;64700;52.130;21.270;2024-03-02T06:21:02;100300.44;;;20.43
76009;BMP280;64700;52.130;21.270;2024-03-02T06:23:27;100311.56;;;20.45
76009;BMP280;64700;52.130;21.270;2024-03-02T06:25:53;100314.03;;;20.43
76009;BMP280;64700;52.130;21.270;2024-03-02T06:28:18;100300.91;;;20.42
76009;BMP280;64700;52.130;21.270;2024-03-02T06:30:43;100302.69;;;20.45
76009;BMP280;64700;52.130;21.270;2024-03-02T06:33:09;100308.09;;;20.45
76009;BMP280;64700;52.130;21.270;2024-03-02T06:35:34;100311.31;;;20.43
76009;BMP280;64700;52.130;21.270;2024-03-02T06:38:00;100319.44;;;20.43
76009;BMP280;64700;52.130;21.270;2024-03-02T06:40:25;100314.78;;;20.44
76009;BMP280;64700;52.130;21.270;2024-03-02T06:42:50;100311.31;;;20.43
76009;BMP280;64700;52.130;21.270;2024-03-02T06:45:15;100309.34;;;20.44
76009;BMP280;64700;52.130;21.270;2024-03-02T06:47:41;100306.34;;;20.42
76009;BMP280;64700;52.130;21.270;2024-03-02T06:50:06;100309.34;;;20.44
76009;BMP280;64700;52.130;21.270;2024-03-02T06:52:32;100310.06;;;20.44
76009;BMP280;64700;52.130;21.270;2024-03-02T06:54:57;100312.78;;;20.44
76009;BMP280;64700;52.130;21.270;2024-03-02T06:57:22;100312.06;;;20.44
76009;BMP280;64700;52.130;21.270;2024-03-02T06:59:49;100310.56;;;20.43
76009;BMP280;64700;52.130;21.270;2024-03-02T07:02:16;100313.28;;;20.43
76009;BMP280;64700;52.130;21.270;2024-03-02T07:04:41;100314.78;;;20.44
76009;BMP280;64700;52.130;21.270;2024-03-02T07:07:06;100314.78;;;20.44
76009;BMP280;64700;52.130;21.270;2024-03-02T07:09:31;100315.22;;;20.42
76009;BMP280;64700;52.130;21.270;2024-03-02T07:11:57;100319.91;;;20.42
76009;BMP280;64700;52.130;21.270;2024-03-02T07:14:22;100322.63;;;20.42
76009;BMP280;64700;52.130;21.270;2024-03-02T07:17:07;100326.38;;;20.44
76009;BMP280;64700;52.130;21.270;2024-03-02T07:19:32;100331.78;;;20.44
76009;BMP280;64700;52.130;21.270;2024-03-02T07:21:57;100327.59;;;20.43
76009;BMP280;64700;52.130;21.270;2024-03-02T07:24:22;100331.53;;;20.42
76009;BMP280;64700;52.130;21.270;2024-03-02T07:26:48;100324.69;;;20.47
76009;BMP280;64700;52.130;21.270;2024-03-02T07:29:13;100328.47;;;20.49
76009;BMP280;64700;52.130;21.270;2024-03-02T07:31:38;100325.00;;;20.49
76009;BMP280;64700;52.130;21.270;2024-03-02T07:34:03;100331.63;;;20.48
76009;BMP280;64700;52.130;21.270;2024-03-02T07:36:28;100330.16;;;20.62
76009;BMP280;64700;52.130;21.270;2024-03-02T07:38:53;100326.16;;;20.72
76009;BMP280;64700;52.130;21.270;2024-03-02T07:41:19;100327.47;;;20.76
76009;BMP280;64700;52.130;21.270;2024-03-02T07:43:44;100329.75;;;20.78
76009;BMP280;64700;52.130;21.270;2024-03-02T07:46:10;100328.06;;;20.80
76009;BMP280;64700;52.130;21.270;2024-03-02T07:48:35;100327.31;;;20.80
76009;BMP280;64700;52.130;21.270;2024-03-02T07:51:00;100329.75;;;20.78
76009;BMP280;64700;52.130;21.270;2024-03-02T07:53:27;100343.22;;;20.72
76009;BMP280;64700;52.130;21.270;2024-03-02T07:55:52;100348.09;;;20.68
76009;BMP280;64700;52.130;21.270;2024-03-02T07:58:17;100352.78;;;20.68
76009;BMP280;64700;52.130;21.270;2024-03-02T08:00:44;100356.69;;;20.67
76009;BMP280;64700;52.130;21.270;2024-03-02T08:03:09;100357.31;;;20.62
76009;BMP280;64700;52.130;21.270;2024-03-02T08:05:36;100357.81;;;20.60
76009;BMP280;64700;52.130;21.270;2024-03-02T08:08:01;100349.34;;;20.58
76009;BMP280;64700;52.130;21.270;2024-03-02T08:10:27;100352.06;;;20.58
76009;BMP280;64700;52.130;21.270;2024-03-02T08:12:52;100350.13;;;20.59
76009;BMP280;64700;52.130;21.270;2024-03-02T08:15:17;100358.25;;;20.59
76009;BMP280;64700;52.130;21.270;2024-03-02T08:17:43;100351.31;;;20.58
76009;BMP280;64700;52.130;21.270;2024-03-02T08:20:13;100345.88;;;20.58
76009;BMP280;64700;52.130;21.270;2024-03-02T08:22:38;100342.44;;;20.57
76009;BMP280;64700;52.130;21.270;2024-03-02T08:25:03;100342.91;;;20.56
76009;BMP280;64700;52.130;21.270;2024-03-02T08:27:29;100344.13;;;20.55
76009;BMP280;64700;52.130;21.270;2024-03-02T08:29:54;100353.03;;;20.55
76009;BMP280;64700;52.130;21.270;2024-03-02T08:32:19;100348.78;;;20.54
76009;BMP280;64700;52.130;21.270;2024-03-02T08:34:44;100354.78;;;20.58
76009;BMP280;64700;52.130;21.270;2024-03-02T08:37:09;100352.63;;;20.62
76009;BMP280;64700;52.130;21.270;2024-03-02T08:39:35;100357.44;;;20.67
76009;BMP280;64700;52.130;21.270;2024-03-02T08:42:00;100358.66;;;20.66
76009;BMP280;64700;52.130;21.270;2024-03-02T08:44:25;100353.97;;;20.67
76009;BMP280;64700;52.130;21.270;2024-03-02T08:46:51;100355.59;;;20.73
76009;BMP280;64700;52.130;21.270;2024-03-02T08:49:16;100362.50;;;20.74
76009;BMP280;64700;52.130;21.270;2024-03-02T08:51:41;100359.97;;;20.71
76009;BMP280;64700;52.130;21.270;2024-03-02T08:54:06;100361.69;;;20.68
76009;BMP280;64700;52.130;21.270;2024-03-02T08:56:31;100366.81;;;20.66
76009;BMP280;64700;52.130;21.270;2024-03-02T08:58:57;100367.56;;;20.67
76009;BMP280;64700;52.130;21.270;2024-03-02T09:01:22;100374.06;;;20.69
76009;BMP280;64700;52.130;21.270;2024-03-02T09:03:47;100372.53;;;20.68
76009;BMP280;64700;52.130;21.270;2024-03-02T09:06:14;100377.97;;;20.68
76009;BMP280;64700;52.130;21.270;2024-03-02T09:08:39;100374.31;;;20.71
76009;BMP280;64700;52.130;21.270;2024-03-02T09:11:05;100367.66;;;20.72
76009;BMP280;64700;52.130;21.270;2024-03-02T09:13:31;100365.72;;;20.73
76009;BMP280;64700;52.130;21.270;2024-03-02T09:15:57;100366.91;;;20.72
76009;BMP280;64700;52.130;21.270;2024-03-02T09:18:22;100372.34;;;20.72
76009;BMP280;64700;52.130;21.270;2024-03-02T09:20:47;100373.09;;;20.72
76009;BMP280;64700;52.130;21.270;2024-03-02T09:23:12;100373.38;;;20.74
76009;BMP280;64700;52.130;21.270;2024-03-02T09:25:37;100367.81;;;20.78
76009;BMP280;64700;52.130;21.270;2024-03-02T09:28:03;100364.31;;;20.77
76009;BMP280;64700;52.130;21.270;2024-03-02T09:30:28;100365.09;;;20.78
76009;BMP280;64700;52.130;21.270;2024-03-02T09:32:53;100367.31;;;20.79
76009;BMP280;64700;52.130;21.270;2024-03-02T09:35:18;100367.31;;;20.79
76009;BMP280;64700;52.130;21.270;2024-03-02T09:37:44;100367.03;;;20.77
76009;BMP280;64700;52.130;21.270;2024-03-02T09:40:09;100370.03;;;20.79
76009;BMP280;64700;52.130;21.270;2024-03-02T09:42:34;100371.53;;;20.80
76009;BMP280;64700;52.130;21.270;2024-03-02T09:45:00;100371.25;;;20.78
76009;BMP280;64700;52.130;21.270;2024-03-02T09:47:25;100370.53;;;20.78
76009;BMP280;64700;52.130;21.270;2024-03-02T09:49:51;100365.97;;;20.75
76009;BMP280;64700;52.130;21.270;2024-03-02T09:52:16;100356.63;;;20.76
76009;BMP280;64700;52.130;21.270;2024-03-02T09:54:41;100363.25;;;20.75
76009;BMP280;64700;52.130;21.270;2024-03-02T09:57:06;100367.94;;;20.74
76009;BMP280;64700;52.130;21.270;2024-03-02T09:59:32;100364.47;;;20.74
76009;BMP280;64700;52.130;21.270;2024-03-02T10:02:00;100359.34;;;20.76
76009;BMP280;64700;52.130;21.270;2024-03-02T10:04:26;100362.81;;;20.76
76009;BMP280;64700;52.130;21.270;2024-03-02T10:07:03;100361.75;;;20.74
76009;BMP280;64700;52.130;21.270;2024-03-02T10:09:34;100363.00;;;20.73
76009;BMP280;64700;52.130;21.270;2024-03-02T10:12:05;100353.59;;;20.74
76009;BMP280;64700;52.130;21.270;2024-03-02T10:14:31;100346.19;;;20.74
76009;BMP280;64700;52.130;21.270;2024-03-02T10:17:01;100350.16;;;20.73
76009;BMP280;64700;52.130;21.270;2024-03-02T10:19:27;100344.72;;;20.73
76009;BMP280;64700;52.130;21.270;2024-03-02T10:21:57;100338.53;;;20.73
76009;BMP280;64700;52.130;21.270;2024-03-02T10:24:23;100345.44;;;20.74
76009;BMP280;64700;52.130;21.270;2024-03-02T10:26:48;100336.84;;;20.75
76009;BMP280;64700;52.130;21.270;2024-03-02T10:29:14;100334.88;;;20.76
76009;BMP280;64700;52.130;21.270;2024-03-02T10:31:40;100327.47;;;20.76
76009;BMP280;64700;52.130;21.270;2024-03-02T10:34:06;100329.28;;;20.79
76009;BMP280;64700;52.130;21.270;2024-03-02T10:36:32;100333.03;;;20.82
76009;BMP280;64700;52.130;21.270;2024-03-02T10:38:57;100328.06;;;20.80
76009;BMP280;64700;52.130;21.270;2024-03-02T10:41:24;100332.56;;;20.83
76009;BMP280;64700;52.130;21.270;2024-03-02T10:43:51;100335.06;;;20.87
76009;BMP280;64700;52.130;21.270;2024-03-02T10:46:18;100328.72;;;20.90
76009;BMP280;64700;52.130;21.270;2024-03-02T10:48:44;100326.00;;;20.90
76009;BMP280;64700;52.130;21.270;2024-03-02T10:51:10;100324.97;;;20.87
76009;BMP280;64700;52.130;21.270;2024-03-02T10:53:36;100326.47;;;20.88
76009;BMP280;64700;52.130;21.270;2024-03-02T10:56:01;100326.59;;;20.94
76009;BMP280;64700;52.130;21.270;2024-03-02T10:58:29;100318.44;;;20.94
76009;BMP280;64700;52.130;21.270;2024-03-02T11:00:56;100326.59;;;20.94
76009;BMP280;64700;52.130;21.270;2024-03-02T11:03:23;100332.44;;;20.92
76009;BMP280;64700;52.130;21.270;2024-03-02T11:05:48;100331.28;;;20.94
76009;BMP280;64700;52.130;21.270;2024-03-02T11:08:16;100328.06;;;20.95
76009;BMP280;64700;52.130;21.270;2024-03-02T11:10:50;100326.38;;;20.98
76009;BMP280;64700;52.130;21.270;2024-03-02T11:13:22;100326.38;;;20.98
76009;BMP280;64700;52.130;21.270;2024-03-02T11:15:49;100324.13;;;20.96
76009;BMP280;64700;52.130;21.270;2024-03-02T11:18:16;100307.56;;;20.94
76009;BMP280;64700;52.130;21.270;2024-03-02T11:20:42;100314.28;;;20.99
76009;BMP280;64700;52.130;21.270;2024-03-02T11:23:08;100308.13;;;20.98
76009;BMP280;64700;52.130;21.270;2024-03-02T11:25:33;100307.38;;;20.98
76009;BMP280;64700;52.130;21.270;2024-03-02T11:27:59;100308.13;;;20.98
76009;BMP280;64700;52.130;21.270;2024-03-02T11:32:56;100299.97;;;20.98
76009;BMP280;64700;52.130;21.270;2024-03-02T11:35:21;100301.94;;;20.98
76009;BMP280;64700;52.130;21.270;2024-03-02T11:37:47;100295.75;;;20.97
76009;BMP280;64700;52.130;21.270;2024-03-02T11:40:12;100298.72;;;20.99
76009;BMP280;64700;52.130;21.270;2024-03-02T11:42:38;100292.25;;;20.97
76009;BMP280;64700;52.130;21.270;2024-03-02T11:45:03;100284.38;;;20.99
76009;BMP280;64700;52.130;21.270;2024-03-02T11:47:31;100284.88;;;20.97
76009;BMP280;64700;52.130;21.270;2024-03-02T11:49:56;100266.28;;;20.96
76009;BMP280;64700;52.130;21.270;2024-03-02T11:52:21;100266.28;;;20.96
76009;BMP280;64700;52.130;21.270;2024-03-02T11:54:47;100268.06;;;20.99
76009;BMP280;64700;52.130;21.270;2024-03-02T11:57:14;100279.22;;;21.01
76009;BMP280;64700;52.130;21.270;2024-03-02T11:59:40;100284.66;;;21.01
76009;BMP280;64700;52.130;21.270;2024-03-02T12:02:06;100308.38;;;21.00
76009;BMP280;64700;52.130;21.270;2024-03-02T12:04:31;100301.72;;;21.01
76009;BMP280;64700;52.130;21.270;2024-03-02T12:07:00;100298.53;;;21.03
76009;BMP280;64700;52.130;21.270;2024-03-02T12:09:25;100295.06;;;21.02
76009;BMP280;64700;52.130;21.270;2024-03-02T12:12:04;100295.84;;;21.03
76009;BMP280;64700;52.130;21.270;2024-03-02T12:14:30;100300.50;;;21.02
76009;BMP280;64700;52.130;21.270;2024-03-02T12:16:55;100299.75;;;21.02
76009;BMP280;64700;52.130;21.270;2024-03-02T12:19:21;100305.94;;;21.02
76009;BMP280;64700;52.130;21.270;2024-03-02T12:21:46;100311.38;;;21.02
76009;BMP280;64700;52.130;21.270;2024-03-02T12:24:11;100300.97;;;21.01
76009;BMP280;64700;52.130;21.270;2024-03-02T12:26:36;100312.88;;;21.03
76009;BMP280;64700;52.130;21.270;2024-03-02T12:29:02;100300.78;;;21.04
76009;BMP280;64700;52.130;21.270;2024-03-02T12:31:27;100306.97;;;21.05
76009;BMP280;64700;52.130;21.270;2024-03-02T12:33:52;100303.22;;;21.02
76009;BMP280;64700;52.130;21.270;2024-03-02T12:36:17;100305.00;;;21.05
76009;BMP280;64700;52.130;21.270;2024-03-02T12:38:44;100311.47;;;21.08
76009;BMP280;64700;52.130;21.270;2024-03-02T12:41:09;100311.47;;;21.08
76009;BMP280;64700;52.130;21.270;2024-03-02T12:43:34;100305.59;;;21.09
76009;BMP280;64700;52.130;21.270;2024-03-02T12:45:59;100304.63;;;21.12
76009;BMP280;64700;52.130;21.270;2024-03-02T12:48:25;100301.72;;;21.16
76009;BMP280;64700;52.130;21.270;2024-03-02T12:50:50;100299.75;;;21.16
76009;BMP280;64700;52.130;21.270;2024-03-02T12:53:15;100297.78;;;21.17
76009;BMP280;64700;52.130;21.270;2024-03-02T12:55:41;100297.22;;;21.13
76009;BMP280;64700;52.130;21.270;2024-03-02T12:58:06;100300.41;;;21.11
76009;BMP280;64700;52.130;21.270;2024-03-02T13:00:31;100305.84;;;21.11
76009;BMP280;64700;52.130;21.270;2024-03-02T13:03:00;100304.38;;;21.10
76009;BMP280;64700;52.130;21.270;2024-03-02T13:05:29;100306.34;;;21.10
76009;BMP280;64700;52.130;21.270;2024-03-02T13:07:54;100298.81;;;21.05
76009;BMP280;64700;52.130;21.270;2024-03-02T13:10:20;100303.78;;;21.06
76009;BMP280;64700;52.130;21.270;2024-03-02T13:12:45;100300.16;;;21.09
76009;BMP280;64700;52.130;21.270;2024-03-02T13:15:11;100309.06;;;21.10
76009;BMP280;64700;52.130;21.270;2024-03-02T13:17:36;100308.56;;;21.11
76009;BMP280;64700;52.130;21.270;2024-03-02T13:20:02;100307.84;;;21.11
76009;BMP280;64700;52.130;21.270;2024-03-02T13:22:29;100311.28;;;21.11
76009;BMP280;64700;52.130;21.270;2024-03-02T13:24:54;100305.13;;;21.11
76009;BMP280;64700;52.130;21.270;2024-03-02T13:27:19;100304.44;;;21.16
76009;BMP280;64700;52.130;21.270;2024-03-02T13:29:45;100305.94;;;21.17
76009;BMP280;64700;52.130;21.270;2024-03-02T13:32:11;100314.38;;;21.19
76009;BMP280;64700;52.130;21.270;2024-03-02T13:34:36;100302.00;;;21.18
76009;BMP280;64700;52.130;21.270;2024-03-02T13:37:04;100305.47;;;21.18
76009;BMP280;64700;52.130;21.270;2024-03-02T13:39:30;100302.00;;;21.18